sensor_id;sensor_type;location;lat;lon;timestamp;P1;durP1;ratioP1;P2;durP2;ratioP2
40669;SDS011;26355;45.528;9.234;2023-01-28T00:02:11;31.85;;;15.30;;
40669;SDS011;26355;45.528;9.234;2023-01-28T00:04:38;35.30;;;15.52;;
40669;SDS011;26355;45.528;9.234;2023-01-28T00:07:04;30.15;;;15.60;;
40669;SDS011;26355;45.528;9.234;2023-01-28T00:09:29;28.63;;;14.45;;
40669;SDS011;26355;45.528;9.234;2023-01-28T00:11:55;28.92;;;14.23;;
40669;SDS011;26355;45.528;9.234;2023-01-28T00:14:21;29.00;;;14.60;;
40669;SDS011;26355;45.528;9.234;2023-01-28T00:16:46;28.20;;;13.68;;
40669;SDS011;26355;45.528;9.234;2023-01-28T00:19:12;28.27;;;12.85;;
40669;SDS011;26355;45.528;9.234;2023-01-28T00:21:37;30.45;;;14.27;;
40669;SDS011;26355;45.528;9.234;2023-01-28T00:24:03;29.63;;;14.20;;
40669;SDS011;26355;45.528;9.234;2023-01-28T00:26:30;41.72;;;16.10;;
40669;SDS011;26355;45.528;9.234;2023-01-28T00:28:56;30.00;;;14.57;;
40669;SDS011;26355;45.528;9.234;2023-01-28T00:31:22;33.30;;;15.45;;
40669;SDS011;26355;45.528;9.234;2023-01-28T00:33:51;33.47;;;15.48;;
40669;SDS011;26355;45.528;9.234;2023-01-28T00:36:18;29.80;;;15.57;;
40669;SDS011;26355;45.528;9.234;2023-01-28T00:38:55;33.25;;;15.27;;
40669;SDS011;26355;45.528;9.234;2023-01-28T00:41:23;30.48;;;16.23;;
40669;SDS011;26355;45.528;9.234;2023-01-28T00:43:50;31.80;;;15.57;;
40669;SDS011;26355;45.528;9.234;2023-01-28T00:46:16;30.52;;;15.70;;
40669;SDS011;26355;45.528;9.234;2023-01-28T00:48:42;33.65;;;16.25;;
40669;SDS011;26355;45.528;9.234;2023-01-28T00:51:09;34.55;;;16.17;;
40669;SDS011;26355;45.528;9.234;2023-01-28T00:53:35;33.03;;;15.77;;
40669;SDS011;26355;45.528;9.234;2023-01-28T00:56:02;35.20;;;16.42;;
40669;SDS011;26355;45.528;9.234;2023-01-28T00:58:29;31.60;;;16.40;;
40669;SDS011;26355;45.528;9.234;2023-01-28T01:00:55;35.25;;;17.10;;
40669;SDS011;26355;45.528;9.234;2023-01-28T01:03:21;31.13;;;16.95;;
40669;SDS011;26355;45.528;9.234;2023-01-28T01:05:46;33.15;;;16.73;;
40669;SDS011;26355;45.528;9.234;2023-01-28T01:08:12;33.97;;;17.77;;
40669;SDS011;26355;45.528;9.234;2023-01-28T01:10:38;33.50;;;16.52;;
40669;SDS011;26355;45.528;9.234;2023-01-28T01:13:04;34.50;;;17.73;;
40669;SDS011;26355;45.528;9.234;2023-01-28T01:15:30;31.65;;;18.25;;
40669;SDS011;26355;45.528;9.234;2023-01-28T01:17:56;33.75;;;18.33;;
40669;SDS011;26355;45.528;9.234;2023-01-28T01:20:23;34.80;;;18.13;;
40669;SDS011;26355;45.528;9.234;2023-01-28T01:22:55;32.60;;;17.23;;
40669;SDS011;26355;45.528;9.234;2023-01-28T01:25:20;36.50;;;19.05;;
40669;SDS011;26355;45.528;9.234;2023-01-28T01:27:49;34.38;;;17.83;;
40669;SDS011;26355;45.528;9.234;2023-01-28T01:30:15;36.72;;;18.33;;
40669;SDS011;26355;45.528;9.234;2023-01-28T01:32:41;33.28;;;18.92;;
40669;SDS011;26355;45.528;9.234;2023-01-28T01:35:06;33.28;;;17.98;;
40669;SDS011;26355;45.528;9.234;2023-01-28T01:37:33;40.40;;;20.77;;
40669;SDS011;26355;45.528;9.234;2023-01-28T01:40:00;36.10;;;18.35;;
40669;SDS011;26355;45.528;9.234;2023-01-28T01:42:26;34.95;;;18.95;;
40669;SDS011;26355;45.528;9.234;2023-01-28T01:45:11;33.65;;;17.55;;
40669;SDS011;26355;45.528;9.234;2023-01-28T01:50:30;35.92;;;19.08;;
40669;SDS011;26355;45.528;9.234;2023-01-28T01:53:03;33.15;;;17.92;;
40669;SDS011;26355;45.528;9.234;2023-01-28T01:55:41;36.33;;;18.77;;
40669;SDS011;26355;45.528;9.234;2023-01-28T01:58:12;34.05;;;18.50;;
40669;SDS011;26355;45.528;9.234;2023-01-28T02:00:41;35.95;;;18.98;;
40669;SDS011;26355;45.528;9.234;2023-01-28T02:03:07;33.42;;;17.90;;
40669;SDS011;26355;45.528;9.234;2023-01-28T02:05:34;34.63;;;18.15;;
40669;SDS011;26355;45.528;9.234;2023-01-28T02:08:00;34.60;;;17.73;;
40669;SDS011;26355;45.528;9.234;2023-01-28T02:10:45;35.78;;;18.50;;
40669;SDS011;26355;45.528;9.234;2023-01-28T02:13:19;35.22;;;18.92;;
40669;SDS011;26355;45.528;9.234;2023-01-28T02:15:50;34.53;;;17.67;;
40669;SDS011;26355;45.528;9.234;2023-01-28T02:18:16;35.70;;;18.35;;
40669;SDS011;26355;45.528;9.234;2023-01-28T02:20:50;33.83;;;17.17;;
40669;SDS011;26355;45.528;9.234;2023-01-28T02:29:37;31.75;;;17.05;;
40669;SDS011;26355;45.528;9.234;2023-01-28T02:32:26;33.25;;;18.02;;
40669;SDS011;26355;45.528;9.234;2023-01-28T02:37:55;33.17;;;18.33;;
40669;SDS011;26355;45.528;9.234;2023-01-28T02:40:29;36.10;;;18.27;;
40669;SDS011;26355;45.528;9.234;2023-01-28T02:42:58;37.10;;;19.80;;
40669;SDS011;26355;45.528;9.234;2023-01-28T02:45:25;34.17;;;18.40;;
40669;SDS011;26355;45.528;9.234;2023-01-28T02:48:14;35.50;;;19.20;;
40669;SDS011;26355;45.528;9.234;2023-01-28T02:51:04;34.28;;;17.55;;
40669;SDS011;26355;45.528;9.234;2023-01-28T02:53:44;37.20;;;18.80;;
40669;SDS011;26355;45.528;9.234;2023-01-28T02:59:22;33.78;;;17.58;;
40669;SDS011;26355;45.528;9.234;2023-01-28T03:07:30;35.58;;;18.67;;
40669;SDS011;26355;45.528;9.234;2023-01-28T03:10:00;35.63;;;17.77;;
40669;SDS011;26355;45.528;9.234;2023-01-28T03:12:30;35.97;;;19.52;;
40669;SDS011;26355;45.528;9.234;2023-01-28T03:15:16;34.22;;;18.30;;
40669;SDS011;26355;45.528;9.234;2023-01-28T03:18:17;36.28;;;19.10;;
40669;SDS011;26355;45.528;9.234;2023-01-28T03:21:24;36.00;;;19.00;;
40669;SDS011;26355;45.528;9.234;2023-01-28T03:24:20;36.78;;;18.60;;
40669;SDS011;26355;45.528;9.234;2023-01-28T03:27:13;35.90;;;18.85;;
40669;SDS011;26355;45.528;9.234;2023-01-28T03:30:14;37.20;;;19.40;;
40669;SDS011;26355;45.528;9.234;2023-01-28T03:33:03;36.78;;;19.38;;
40669;SDS011;26355;45.528;9.234;2023-01-28T03:35:49;39.53;;;18.83;;
40669;SDS011;26355;45.528;9.234;2023-01-28T03:38:33;38.72;;;18.27;;
40669;SDS011;26355;45.528;9.234;2023-01-28T03:41:06;34.28;;;17.98;;
40669;SDS011;26355;45.528;9.234;2023-01-28T03:43:33;37.47;;;18.05;;
40669;SDS011;26355;45.528;9.234;2023-01-28T03:45:59;37.33;;;19.90;;
40669;SDS011;26355;45.528;9.234;2023-01-28T03:48:25;33.60;;;18.05;;
40669;SDS011;26355;45.528;9.234;2023-01-28T03:50:53;35.40;;;19.58;;
40669;SDS011;26355;45.528;9.234;2023-01-28T03:53:20;35.92;;;20.33;;
40669;SDS011;26355;45.528;9.234;2023-01-28T03:55:46;35.60;;;18.35;;
40669;SDS011;26355;45.528;9.234;2023-01-28T03:58:14;35.22;;;18.60;;
40669;SDS011;26355;45.528;9.234;2023-01-28T04:00:40;35.72;;;18.65;;
40669;SDS011;26355;45.528;9.234;2023-01-28T04:03:10;36.75;;;19.25;;
40669;SDS011;26355;45.528;9.234;2023-01-28T04:05:44;38.70;;;19.70;;
40669;SDS011;26355;45.528;9.234;2023-01-28T04:08:11;37.67;;;19.08;;
40669;SDS011;26355;45.528;9.234;2023-01-28T04:10:38;35.78;;;18.50;;
40669;SDS011;26355;45.528;9.234;2023-01-28T04:13:04;36.88;;;19.88;;
40669;SDS011;26355;45.528;9.234;2023-01-28T04:15:30;34.97;;;18.98;;
40669;SDS011;26355;45.528;9.234;2023-01-28T04:17:56;37.72;;;19.48;;
40669;SDS011;26355;45.528;9.234;2023-01-28T04:20:22;38.03;;;18.35;;
40669;SDS011;26355;45.528;9.234;2023-01-28T04:22:47;34.63;;;19.17;;
40669;SDS011;26355;45.528;9.234;2023-01-28T04:25:13;32.65;;;17.13;;
40669;SDS011;26355;45.528;9.234;2023-01-28T04:27:38;35.03;;;19.15;;
40669;SDS011;26355;45.528;9.234;2023-01-28T04:30:04;35.15;;;19.73;;
40669;SDS011;26355;45.528;9.234;2023-01-28T04:32:30;35.58;;;18.75;;
40669;SDS011;26355;45.528;9.234;2023-01-28T04:34:56;33.25;;;17.17;;
40669;SDS011;26355;45.528;9.234;2023-01-28T04:37:21;37.35;;;20.13;;
40669;SDS011;26355;45.528;9.234;2023-01-28T04:39:47;35.75;;;18.38;;
40669;SDS011;26355;45.528;9.234;2023-01-28T04:42:12;36.20;;;17.98;;
40669;SDS011;26355;45.528;9.234;2023-01-28T04:44:38;34.10;;;17.67;;
40669;SDS011;26355;45.528;9.234;2023-01-28T04:47:04;36.33;;;18.10;;
40669;SDS011;26355;45.528;9.234;2023-01-28T04:49:29;34.83;;;18.58;;
40669;SDS011;26355;45.528;9.234;2023-01-28T04:51:55;34.10;;;17.70;;
40669;SDS011;26355;45.528;9.234;2023-01-28T04:54:20;36.28;;;17.85;;
40669;SDS011;26355;45.528;9.234;2023-01-28T04:56:46;35.75;;;17.40;;
40669;SDS011;26355;45.528;9.234;2023-01-28T04:59:11;34.75;;;18.27;;
40669;SDS011;26355;45.528;9.234;2023-01-28T05:01:37;35.45;;;17.95;;
40669;SDS011;26355;45.528;9.234;2023-01-28T05:04:03;35.65;;;18.15;;
40669;SDS011;26355;45.528;9.234;2023-01-28T05:06:32;35.10;;;17.60;;
40669;SDS011;26355;45.528;9.234;2023-01-28T05:08:58;34.70;;;16.63;;
40669;SDS011;26355;45.528;9.234;2023-01-28T05:11:24;33.45;;;16.95;;
40669;SDS011;26355;45.528;9.234;2023-01-28T05:13:50;32.10;;;16.92;;
40669;SDS011;26355;45.528;9.234;2023-01-28T05:16:15;37.22;;;17.63;;
40669;SDS011;26355;45.528;9.234;2023-01-28T05:18:41;34.83;;;17.52;;
40669;SDS011;26355;45.528;9.234;2023-01-28T05:21:07;38.35;;;20.30;;
40669;SDS011;26355;45.528;9.234;2023-01-28T05:23:33;33.53;;;17.77;;
40669;SDS011;26355;45.528;9.234;2023-01-28T05:25:58;36.28;;;17.83;;
40669;SDS011;26355;45.528;9.234;2023-01-28T05:28:24;33.88;;;16.77;;
40669;SDS011;26355;45.528;9.234;2023-01-28T05:30:49;33.22;;;16.85;;
40669;SDS011;26355;45.528;9.234;2023-01-28T05:33:15;34.13;;;18.23;;
40669;SDS011;26355;45.528;9.234;2023-01-28T05:35:41;34.80;;;17.55;;
40669;SDS011;26355;45.528;9.234;2023-01-28T05:38:07;34.72;;;17.70;;
40669;SDS011;26355;45.528;9.234;2023-01-28T05:40:33;34.33;;;17.02;;
40669;SDS011;26355;45.528;9.234;2023-01-28T05:42:58;35.08;;;17.38;;
40669;SDS011;26355;45.528;9.234;2023-01-28T05:45:24;32.80;;;16.35;;
40669;SDS011;26355;45.528;9.234;2023-01-28T05:47:50;34.15;;;16.80;;
40669;SDS011;26355;45.528;9.234;2023-01-28T05:50:15;33.05;;;16.90;;
40669;SDS011;26355;45.528;9.234;2023-01-28T05:52:41;40.75;;;18.38;;
40669;SDS011;26355;45.528;9.234;2023-01-28T05:55:07;33.17;;;17.95;;
40669;SDS011;26355;45.528;9.234;2023-01-28T05:57:33;32.47;;;16.70;;
40669;SDS011;26355;45.528;9.234;2023-01-28T05:59:59;34.38;;;17.92;;
40669;SDS011;26355;45.528;9.234;2023-01-28T06:02:24;34.47;;;16.58;;
40669;SDS011;26355;45.528;9.234;2023-01-28T06:04:50;32.55;;;17.05;;
40669;SDS011;26355;45.528;9.234;2023-01-28T06:07:16;32.85;;;16.48;;
40669;SDS011;26355;45.528;9.234;2023-01-28T06:09:44;35.38;;;17.73;;
40669;SDS011;26355;45.528;9.234;2023-01-28T06:12:11;31.23;;;16.70;;
40669;SDS011;26355;45.528;9.234;2023-01-28T06:14:37;31.30;;;16.80;;
40669;SDS011;26355;45.528;9.234;2023-01-28T06:17:02;31.63;;;16.50;;
40669;SDS011;26355;45.528;9.234;2023-01-28T06:19:28;35.47;;;18.67;;
40669;SDS011;26355;45.528;9.234;2023-01-28T06:21:53;34.67;;;17.02;;
40669;SDS011;26355;45.528;9.234;2023-01-28T06:24:19;35.08;;;17.67;;
40669;SDS011;26355;45.528;9.234;2023-01-28T06:26:45;31.25;;;16.05;;
40669;SDS011;26355;45.528;9.234;2023-01-28T06:29:10;34.97;;;16.73;;
40669;SDS011;26355;45.528;9.234;2023-01-28T06:31:36;33.30;;;17.42;;
40669;SDS011;26355;45.528;9.234;2023-01-28T06:34:02;33.42;;;16.92;;
40669;SDS011;26355;45.528;9.234;2023-01-28T06:36:27;33.60;;;16.23;;
40669;SDS011;26355;45.528;9.234;2023-01-28T06:38:53;36.67;;;17.02;;
40669;SDS011;26355;45.528;9.234;2023-01-28T06:41:18;34.00;;;17.20;;
40669;SDS011;26355;45.528;9.234;2023-01-28T06:43:44;34.35;;;17.83;;
40669;SDS011;26355;45.528;9.234;2023-01-28T06:46:09;32.08;;;16.30;;
40669;SDS011;26355;45.528;9.234;2023-01-28T06:48:35;34.78;;;16.98;;
40669;SDS011;26355;45.528;9.234;2023-01-28T06:51:01;34.17;;;17.50;;
40669;SDS011;26355;45.528;9.234;2023-01-28T06:53:26;36.65;;;18.63;;
40669;SDS011;26355;45.528;9.234;2023-01-28T06:55:52;34.08;;;17.05;;
40669;SDS011;26355;45.528;9.234;2023-01-28T06:58:17;32.35;;;16.35;;
40669;SDS011;26355;45.528;9.234;2023-01-28T07:00:43;35.58;;;17.42;;
40669;SDS011;26355;45.528;9.234;2023-01-28T07:03:08;37.80;;;17.80;;
40669;SDS011;26355;45.528;9.234;2023-01-28T07:05:34;35.63;;;18.23;;
40669;SDS011;26355;45.528;9.234;2023-01-28T07:08:00;34.17;;;17.35;;
40669;SDS011;26355;45.528;9.234;2023-01-28T07:10:26;38.33;;;18.88;;
40669;SDS011;26355;45.528;9.234;2023-01-28T07:12:52;39.53;;;19.23;;
40669;SDS011;26355;45.528;9.234;2023-01-28T07:15:17;34.88;;;18.63;;
40669;SDS011;26355;45.528;9.234;2023-01-28T07:17:43;38.20;;;19.63;;
40669;SDS011;26355;45.528;9.234;2023-01-28T07:20:10;38.13;;;19.17;;
40669;SDS011;26355;45.528;9.234;2023-01-28T07:22:38;35.08;;;18.55;;
40669;SDS011;26355;45.528;9.234;2023-01-28T07:25:05;34.88;;;17.70;;
40669;SDS011;26355;45.528;9.234;2023-01-28T07:27:32;34.83;;;17.85;;
40669;SDS011;26355;45.528;9.234;2023-01-28T07:29:57;36.20;;;19.30;;
40669;SDS011;26355;45.528;9.234;2023-01-28T07:32:23;36.22;;;18.20;;
40669;SDS011;26355;45.528;9.234;2023-01-28T07:37:17;39.72;;;20.10;;
40669;SDS011;26355;45.528;9.234;2023-01-28T07:39:43;36.67;;;19.05;;
40669;SDS011;26355;45.528;9.234;2023-01-28T07:42:09;35.47;;;18.33;;
40669;SDS011;26355;45.528;9.234;2023-01-28T07:44:34;40.70;;;20.65;;
40669;SDS011;26355;45.528;9.234;2023-01-28T07:47:01;35.25;;;19.42;;
40669;SDS011;26355;45.528;9.234;2023-01-28T07:49:27;39.00;;;20.20;;
40669;SDS011;26355;45.528;9.234;2023-01-28T07:51:52;36.25;;;19.98;;
40669;SDS011;26355;45.528;9.234;2023-01-28T07:54:18;39.70;;;19.77;;
40669;SDS011;26355;45.528;9.234;2023-01-28T07:56:43;37.20;;;19.45;;
40669;SDS011;26355;45.528;9.234;2023-01-28T07:59:09;36.60;;;17.45;;
40669;SDS011;26355;45.528;9.234;2023-01-28T08:01:34;37.70;;;19.20;;
40669;SDS011;26355;45.528;9.234;2023-01-28T08:04:00;38.75;;;20.48;;
40669;SDS011;26355;45.528;9.234;2023-01-28T08:06:27;37.83;;;18.85;;
40669;SDS011;26355;45.528;9.234;2023-01-28T08:08:53;36.58;;;19.52;;
40669;SDS011;26355;45.528;9.234;2023-01-28T08:11:19;36.60;;;20.60;;
40669;SDS011;26355;45.528;9.234;2023-01-28T08:13:45;37.78;;;20.02;;
40669;SDS011;26355;45.528;9.234;2023-01-28T08:16:11;39.33;;;22.02;;
40669;SDS011;26355;45.528;9.234;2023-01-28T08:18:36;39.03;;;20.88;;
40669;SDS011;26355;45.528;9.234;2023-01-28T08:21:02;38.33;;;19.90;;
40669;SDS011;26355;45.528;9.234;2023-01-28T08:23:30;43.58;;;20.00;;
40669;SDS011;26355;45.528;9.234;2023-01-28T08:25:58;37.38;;;19.52;;
40669;SDS011;26355;45.528;9.234;2023-01-28T08:28:24;41.25;;;21.45;;
40669;SDS011;26355;45.528;9.234;2023-01-28T08:30:50;35.85;;;20.33;;
40669;SDS011;26355;45.528;9.234;2023-01-28T08:33:16;42.25;;;20.90;;
40669;SDS011;26355;45.528;9.234;2023-01-28T08:35:43;34.08;;;20.05;;
40669;SDS011;26355;45.528;9.234;2023-01-28T08:38:09;39.45;;;20.55;;
40669;SDS011;26355;45.528;9.234;2023-01-28T08:40:36;37.72;;;20.52;;
40669;SDS011;26355;45.528;9.234;2023-01-28T08:43:02;38.75;;;19.65;;
40669;SDS011;26355;45.528;9.234;2023-01-28T08:45:28;37.97;;;20.42;;
40669;SDS011;26355;45.528;9.234;2023-01-28T08:50:31;39.50;;;20.52;;
40669;SDS011;26355;45.528;9.234;2023-01-28T08:53:01;36.30;;;20.17;;
40669;SDS011;26355;45.528;9.234;2023-01-28T08:55:32;46.08;;;21.52;;
40669;SDS011;26355;45.528;9.234;2023-01-28T08:58:02;34.33;;;21.33;;
40669;SDS011;26355;45.528;9.234;2023-01-28T09:00:34;38.65;;;21.42;;
40669;SDS011;26355;45.528;9.234;2023-01-28T09:02:59;37.67;;;21.23;;
40669;SDS011;26355;45.528;9.234;2023-01-28T09:05:25;37.70;;;20.40;;
40669;SDS011;26355;45.528;9.234;2023-01-28T09:07:51;35.25;;;20.17;;
40669;SDS011;26355;45.528;9.234;2023-01-28T09:10:17;33.50;;;20.02;;
40669;SDS011;26355;45.528;9.234;2023-01-28T09:15:10;32.42;;;18.98;;
40669;SDS011;26355;45.528;9.234;2023-01-28T09:17:36;38.13;;;20.80;;
40669;SDS011;26355;45.528;9.234;2023-01-28T09:20:02;36.03;;;20.92;;
40669;SDS011;26355;45.528;9.234;2023-01-28T09:22:28;35.38;;;20.90;;
40669;SDS011;26355;45.528;9.234;2023-01-28T09:24:54;33.58;;;19.27;;
40669;SDS011;26355;45.528;9.234;2023-01-28T09:27:19;35.83;;;20.63;;
40669;SDS011;26355;45.528;9.234;2023-01-28T09:29:45;34.78;;;20.48;;
40669;SDS011;26355;45.528;9.234;2023-01-28T09:32:10;35.58;;;20.35;;
40669;SDS011;26355;45.528;9.234;2023-01-28T09:34:36;35.38;;;20.60;;
40669;SDS011;26355;45.528;9.234;2023-01-28T09:37:02;34.25;;;19.88;;
40669;SDS011;26355;45.528;9.234;2023-01-28T09:39:27;34.00;;;20.20;;
40669;SDS011;26355;45.528;9.234;2023-01-28T09:47:23;33.58;;;19.55;;
40669;SDS011;26355;45.528;9.234;2023-01-28T09:49:53;34.97;;;19.35;;
40669;SDS011;26355;45.528;9.234;2023-01-28T09:52:22;36.00;;;19.42;;
40669;SDS011;26355;45.528;9.234;2023-01-28T09:54:51;39.53;;;19.42;;
40669;SDS011;26355;45.528;9.234;2023-01-28T09:57:24;35.25;;;20.38;;
40669;SDS011;26355;45.528;9.234;2023-01-28T09:59:51;34.25;;;19.33;;
40669;SDS011;26355;45.528;9.234;2023-01-28T10:18:29;33.30;;;19.85;;
40669;SDS011;26355;45.528;9.234;2023-01-28T10:24:05;33.00;;;17.83;;
40669;SDS011;26355;45.528;9.234;2023-01-28T10:26:39;34.95;;;19.77;;
40669;SDS011;26355;45.528;9.234;2023-01-28T10:29:17;34.22;;;19.67;;
40669;SDS011;26355;45.528;9.234;2023-01-28T10:31:52;35.63;;;20.15;;
40669;SDS011;26355;45.528;9.234;2023-01-28T10:34:20;32.38;;;19.23;;
40669;SDS011;26355;45.528;9.234;2023-01-28T10:36:48;34.47;;;19.02;;
40669;SDS011;26355;45.528;9.234;2023-01-28T10:39:24;34.58;;;19.58;;
40669;SDS011;26355;45.528;9.234;2023-01-28T10:41:56;34.33;;;19.55;;
40669;SDS011;26355;45.528;9.234;2023-01-28T10:47:00;33.10;;;19.27;;
40669;SDS011;26355;45.528;9.234;2023-01-28T10:49:31;34.47;;;19.63;;
40669;SDS011;26355;45.528;9.234;2023-01-28T10:52:09;34.28;;;20.13;;
40669;SDS011;26355;45.528;9.234;2023-01-28T10:54:36;34.47;;;19.20;;
40669;SDS011;26355;45.528;9.234;2023-01-28T10:57:02;34.80;;;20.50;;
40669;SDS011;26355;45.528;9.234;2023-01-28T10:59:33;33.17;;;18.98;;
40669;SDS011;26355;45.528;9.234;2023-01-28T11:02:03;32.30;;;19.45;;
40669;SDS011;26355;45.528;9.234;2023-01-28T11:04:43;32.63;;;19.60;;
40669;SDS011;26355;45.528;9.234;2023-01-28T11:07:16;33.20;;;18.95;;
40669;SDS011;26355;45.528;9.234;2023-01-28T11:09:45;32.60;;;18.63;;
40669;SDS011;26355;45.528;9.234;2023-01-28T11:12:16;37.70;;;20.05;;
40669;SDS011;26355;45.528;9.234;2023-01-28T11:14:48;34.63;;;19.38;;
40669;SDS011;26355;45.528;9.234;2023-01-28T11:17:17;31.70;;;19.02;;
40669;SDS011;26355;45.528;9.234;2023-01-28T11:19:45;32.67;;;20.30;;
40669;SDS011;26355;45.528;9.234;2023-01-28T11:25:01;35.97;;;22.85;;
40669;SDS011;26355;45.528;9.234;2023-01-28T11:30:41;30.38;;;18.77;;
40669;SDS011;26355;45.528;9.234;2023-01-28T11:36:21;33.08;;;19.15;;
40669;SDS011;26355;45.528;9.234;2023-01-28T11:38:58;35.92;;;21.30;;
40669;SDS011;26355;45.528;9.234;2023-01-28T11:41:40;31.83;;;18.60;;
40669;SDS011;26355;45.528;9.234;2023-01-28T11:44:23;31.25;;;19.05;;
40669;SDS011;26355;45.528;9.234;2023-01-28T11:46:58;31.90;;;20.15;;
40669;SDS011;26355;45.528;9.234;2023-01-28T11:52:18;32.17;;;19.67;;
40669;SDS011;26355;45.528;9.234;2023-01-28T11:55:15;33.17;;;20.42;;
40669;SDS011;26355;45.528;9.234;2023-01-28T12:09:39;29.58;;;19.10;;
40669;SDS011;26355;45.528;9.234;2023-01-28T12:15:33;30.30;;;18.88;;
40669;SDS011;26355;45.528;9.234;2023-01-28T12:21:33;29.65;;;17.88;;
40669;SDS011;26355;45.528;9.234;2023-01-28T12:38:10;34.22;;;20.35;;
40669;SDS011;26355;45.528;9.234;2023-01-28T12:41:37;30.13;;;17.80;;
40669;SDS011;26355;45.528;9.234;2023-01-28T12:46:53;31.83;;;17.35;;
40669;SDS011;26355;45.528;9.234;2023-01-28T12:49:29;31.02;;;17.85;;
40669;SDS011;26355;45.528;9.234;2023-01-28T12:57:32;30.52;;;17.45;;
40669;SDS011;26355;45.528;9.234;2023-01-28T13:00:20;32.08;;;17.80;;
40669;SDS011;26355;45.528;9.234;2023-01-28T13:05:30;32.55;;;18.38;;
40669;SDS011;26355;45.528;9.234;2023-01-28T13:08:08;31.95;;;17.10;;
40669;SDS011;26355;45.528;9.234;2023-01-28T13:10:47;31.48;;;18.17;;
40669;SDS011;26355;45.528;9.234;2023-01-28T13:13:17;30.60;;;17.02;;
40669;SDS011;26355;45.528;9.234;2023-01-28T13:15:43;31.33;;;16.75;;
40669;SDS011;26355;45.528;9.234;2023-01-28T13:20:53;28.00;;;14.85;;
40669;SDS011;26355;45.528;9.234;2023-01-28T13:24:02;26.58;;;14.13;;
40669;SDS011;26355;45.528;9.234;2023-01-28T13:28:43;28.33;;;14.73;;
40669;SDS011;26355;45.528;9.234;2023-01-28T13:31:13;26.17;;;12.75;;
40669;SDS011;26355;45.528;9.234;2023-01-28T13:33:47;25.77;;;13.82;;
40669;SDS011;26355;45.528;9.234;2023-01-28T13:38:58;27.13;;;14.10;;
40669;SDS011;26355;45.528;9.234;2023-01-28T13:41:35;28.08;;;14.60;;
40669;SDS011;26355;45.528;9.234;2023-01-28T13:46:49;25.60;;;12.90;;
40669;SDS011;26355;45.528;9.234;2023-01-28T13:49:17;25.67;;;12.45;;
40669;SDS011;26355;45.528;9.234;2023-01-28T13:54:34;22.65;;;10.35;;
40669;SDS011;26355;45.528;9.234;2023-01-28T13:57:06;21.75;;;10.57;;
40669;SDS011;26355;45.528;9.234;2023-01-28T14:00:38;21.83;;;10.05;;
40669;SDS011;26355;45.528;9.234;2023-01-28T14:08:15;24.77;;;11.88;;
40669;SDS011;26355;45.528;9.234;2023-01-28T14:11:07;29.40;;;12.73;;
40669;SDS011;26355;45.528;9.234;2023-01-28T14:19:25;25.90;;;12.35;;
40669;SDS011;26355;45.528;9.234;2023-01-28T14:22:04;24.45;;;11.40;;
40669;SDS011;26355;45.528;9.234;2023-01-28T14:24:31;21.02;;;10.48;;
40669;SDS011;26355;45.528;9.234;2023-01-28T14:27:06;22.67;;;10.40;;
40669;SDS011;26355;45.528;9.234;2023-01-28T14:32:27;25.40;;;12.05;;
40669;SDS011;26355;45.528;9.234;2023-01-28T14:34:54;26.42;;;12.90;;
40669;SDS011;26355;45.528;9.234;2023-01-28T14:37:24;26.10;;;12.38;;
40669;SDS011;26355;45.528;9.234;2023-01-28T14:39:57;25.75;;;12.50;;
40669;SDS011;26355;45.528;9.234;2023-01-28T14:42:32;26.45;;;13.77;;
40669;SDS011;26355;45.528;9.234;2023-01-28T14:59:15;26.67;;;13.20;;
40669;SDS011;26355;45.528;9.234;2023-01-28T15:01:45;26.23;;;13.73;;
40669;SDS011;26355;45.528;9.234;2023-01-28T15:07:23;32.55;;;16.83;;
40669;SDS011;26355;45.528;9.234;2023-01-28T15:12:24;33.20;;;17.25;;
40669;SDS011;26355;45.528;9.234;2023-01-28T15:14:50;34.42;;;18.80;;
40669;SDS011;26355;45.528;9.234;2023-01-28T15:17:23;35.42;;;19.65;;
40669;SDS011;26355;45.528;9.234;2023-01-28T15:19:52;33.58;;;18.70;;
40669;SDS011;26355;45.528;9.234;2023-01-28T15:22:20;36.17;;;19.67;;
40669;SDS011;26355;45.528;9.234;2023-01-28T15:24:49;34.88;;;18.45;;
40669;SDS011;26355;45.528;9.234;2023-01-28T15:27:16;33.67;;;19.00;;
40669;SDS011;26355;45.528;9.234;2023-01-28T15:29:51;32.33;;;18.75;;
40669;SDS011;26355;45.528;9.234;2023-01-28T15:32:21;32.30;;;17.10;;
40669;SDS011;26355;45.528;9.234;2023-01-28T15:34:51;32.55;;;16.30;;
40669;SDS011;26355;45.528;9.234;2023-01-28T15:37:17;32.20;;;18.02;;
40669;SDS011;26355;45.528;9.234;2023-01-28T15:39:43;28.67;;;16.13;;
40669;SDS011;26355;45.528;9.234;2023-01-28T15:42:42;30.08;;;16.08;;
40669;SDS011;26355;45.528;9.234;2023-01-28T15:45:02;31.58;;;16.02;;
40669;SDS011;26355;45.528;9.234;2023-01-28T15:47:30;30.95;;;15.02;;
40669;SDS011;26355;45.528;9.234;2023-01-28T15:49:58;27.70;;;15.35;;
40669;SDS011;26355;45.528;9.234;2023-01-28T15:52:29;28.85;;;15.73;;
40669;SDS011;26355;45.528;9.234;2023-01-28T15:55:05;28.75;;;14.43;;
40669;SDS011;26355;45.528;9.234;2023-01-28T15:57:32;28.23;;;14.98;;
40669;SDS011;26355;45.528;9.234;2023-01-28T16:02:30;28.63;;;15.68;;
40669;SDS011;26355;45.528;9.234;2023-01-28T16:05:00;29.23;;;15.07;;
40669;SDS011;26355;45.528;9.234;2023-01-28T16:07:29;30.40;;;14.48;;
40669;SDS011;26355;45.528;9.234;2023-01-28T16:09:57;30.00;;;16.42;;
40669;SDS011;26355;45.528;9.234;2023-01-28T16:12:24;28.33;;;15.00;;
40669;SDS011;26355;45.528;9.234;2023-01-28T16:14:57;31.17;;;15.88;;
40669;SDS011;26355;45.528;9.234;2023-01-28T16:17:30;30.92;;;15.98;;
40669;SDS011;26355;45.528;9.234;2023-01-28T16:20:04;30.25;;;16.77;;
40669;SDS011;26355;45.528;9.234;2023-01-28T16:22:34;29.23;;;15.02;;
40669;SDS011;26355;45.528;9.234;2023-01-28T16:25:02;31.48;;;16.13;;
40669;SDS011;26355;45.528;9.234;2023-01-28T16:27:48;32.70;;;15.73;;
40669;SDS011;26355;45.528;9.234;2023-01-28T16:30:14;30.45;;;15.77;;
40669;SDS011;26355;45.528;9.234;2023-01-28T16:32:41;32.42;;;16.30;;
40669;SDS011;26355;45.528;9.234;2023-01-28T16:35:14;32.92;;;16.17;;
40669;SDS011;26355;45.528;9.234;2023-01-28T16:37:46;30.95;;;14.73;;
40669;SDS011;26355;45.528;9.234;2023-01-28T16:40:14;29.88;;;15.23;;
40669;SDS011;26355;45.528;9.234;2023-01-28T16:42:41;38.92;;;21.50;;
40669;SDS011;26355;45.528;9.234;2023-01-28T16:45:12;33.58;;;16.45;;
40669;SDS011;26355;45.528;9.234;2023-01-28T16:47:44;47.88;;;23.77;;
40669;SDS011;26355;45.528;9.234;2023-01-28T16:50:11;34.35;;;17.48;;
40669;SDS011;26355;45.528;9.234;2023-01-28T16:52:37;29.40;;;15.93;;
40669;SDS011;26355;45.528;9.234;2023-01-28T16:55:05;30.30;;;14.55;;
40669;SDS011;26355;45.528;9.234;2023-01-28T16:57:34;27.98;;;14.20;;
40669;SDS011;26355;45.528;9.234;2023-01-28T17:00:01;30.15;;;15.23;;
40669;SDS011;26355;45.528;9.234;2023-01-28T17:02:27;31.27;;;14.63;;
40669;SDS011;26355;45.528;9.234;2023-01-28T17:04:52;29.10;;;14.95;;
40669;SDS011;26355;45.528;9.234;2023-01-28T17:07:18;31.13;;;15.07;;
40669;SDS011;26355;45.528;9.234;2023-01-28T17:09:43;30.17;;;15.77;;
40669;SDS011;26355;45.528;9.234;2023-01-28T17:12:09;28.85;;;15.63;;
40669;SDS011;26355;45.528;9.234;2023-01-28T17:14:34;28.23;;;15.18;;
40669;SDS011;26355;45.528;9.234;2023-01-28T17:17:00;31.80;;;15.93;;